Time;durP1;ratioP1;P1;durP2;ratioP2;P2;SDS_P1;SDS_P2;PMS_P1;PMS_P2;Temp;Humidity;BMP_temperature;BMP_pressure;BME280_temperature;BME280_humidity;BME280_pressure;Samples;Min_cycle;Max_cycle;Signal;HPM_P1;HPM_P2
2021/10/24 00:00:40;;;;;;;8.10;4.03;;;7.00;99.90;;;;;;4996228;28;20568;-69
2021/10/24 00:03:08;;;;;;;8.93;4.40;;;6.80;99.90;;;;;;4998398;28;20234;-69
2021/10/24 00:05:36;;;;;;;9.77;4.90;;;6.90;99.90;;;;;;4991232;28;20253;-69
2021/10/24 00:08:05;;;;;;;9.33;5.37;;;6.90;99.90;;;;;;4999711;28;20647;-69
2021/10/24 00:10:33;;;;;;;10.83;4.60;;;6.90;99.90;;;;;;4993714;28;20237;-69
2021/10/24 00:13:01;;;;;;;11.80;4.73;;;6.90;99.90;;;;;;5001177;28;20334;-69
2021/10/24 00:15:29;;;;;;;6.87;4.10;;;6.80;99.90;;;;;;5001020;28;20947;-69
2021/10/24 00:17:59;;;;;;;9.30;4.80;;;6.80;99.90;;;;;;4996887;28;20742;-69
2021/10/24 00:20:27;;;;;;;10.43;5.07;;;7.00;99.90;;;;;;4994335;28;20296;-69
2021/10/24 00:22:56;;;;;;;8.60;5.00;;;7.00;99.90;;;;;;4996987;28;20244;-69
2021/10/24 00:25:26;;;;;;;9.97;5.07;;;6.90;99.90;;;;;;4992705;28;20649;-69
2021/10/24 00:27:54;;;;;;;9.27;5.43;;;6.90;99.90;;;;;;4991382;28;20315;-69
2021/10/24 00:30:43;;;;;;;7.23;4.30;;;6.90;99.90;;;;;;4990936;28;20237;-69
2021/10/24 00:33:12;;;;;;;10.47;4.43;;;6.90;99.90;;;;;;4981024;28;20245;-69
2021/10/24 00:35:40;;;;;;;14.97;5.20;;;6.90;99.90;;;;;;4992197;28;20292;-69
2021/10/24 00:38:08;;;;;;;8.20;4.57;;;7.00;99.90;;;;;;4980312;28;20476;-69
2021/10/24 00:40:37;;;;;;;8.93;4.83;;;6.90;99.90;;;;;;4973333;28;20264;-69
2021/10/24 00:43:05;;;;;;;9.40;5.10;;;6.80;99.90;;;;;;4990699;28;20275;-69
2021/10/24 00:45:33;;;;;;;9.57;5.00;;;6.90;99.90;;;;;;4989242;28;20242;-69
2021/10/24 00:48:02;;;;;;;8.57;4.43;;;6.90;99.90;;;;;;4996658;28;20554;-69
2021/10/24 00:50:33;;;;;;;6.73;4.10;;;6.90;99.90;;;;;;4985555;28;20234;-69
2021/10/24 00:53:02;;;;;;;9.83;5.00;;;6.80;99.90;;;;;;4975028;28;20237;-70
2021/10/24 00:55:30;;;;;;;8.13;4.60;;;6.80;99.90;;;;;;4988398;28;20229;-69
2021/10/24 00:58:00;;;;;;;10.20;4.97;;;6.80;99.90;;;;;;4994333;28;20237;-69
2021/10/24 01:00:28;;;;;;;10.37;4.33;;;6.80;99.90;;;;;;4988657;28;20248;-69
2021/10/24 01:02:57;;;;;;;10.13;4.80;;;6.80;99.90;;;;;;4991334;28;20808;-69
2021/10/24 01:05:25;;;;;;;9.63;4.60;;;6.80;99.90;;;;;;4992637;28;20237;-69
2021/10/24 01:07:54;;;;;;;9.70;4.83;;;6.90;99.90;;;;;;4991655;28;20589;-69
2021/10/24 01:10:23;;;;;;;10.83;4.60;;;6.80;99.90;;;;;;4989755;28;20242;-69
2021/10/24 01:12:51;;;;;;;7.90;4.37;;;6.90;99.90;;;;;;4995110;28;20917;-69
2021/10/24 01:15:21;;;;;;;9.60;4.20;;;6.80;99.90;;;;;;4979312;28;20233;-69
2021/10/24 01:17:51;;;;;;;10.37;4.40;;;6.80;99.90;;;;;;4990947;28;20238;-69
2021/10/24 01:20:22;;;;;;;7.63;3.87;;;6.80;99.90;;;;;;4999593;28;20530;-69
2021/10/24 01:22:53;;;;;;;10.37;3.90;;;6.80;99.90;;;;;;4991292;28;20341;-69
2021/10/24 01:25:21;;;;;;;6.47;4.10;;;6.80;99.90;;;;;;4976617;28;20720;-69
2021/10/24 01:27:50;;;;;;;11.87;4.63;;;6.80;99.90;;;;;;4995677;28;20230;-69
2021/10/24 01:30:20;;;;;;;9.37;4.20;;;6.80;99.90;;;;;;4993209;28;20405;-69
2021/10/24 01:32:49;;;;;;;6.70;3.83;;;6.80;99.90;;;;;;4994750;28;20238;-69
2021/10/24 01:35:20;;;;;;;7.27;4.40;;;6.80;99.90;;;;;;4975510;28;20492;-69
2021/10/24 01:37:49;;;;;;;8.87;4.07;;;6.80;99.90;;;;;;4995150;28;20496;-69
2021/10/24 01:40:20;;;;;;;9.13;4.57;;;6.80;99.90;;;;;;4971765;28;20574;-69
2021/10/24 01:42:54;;;;;;;10.30;4.10;;;6.80;99.90;;;;;;4977497;28;20247;-69
2021/10/24 01:45:27;;;;;;;9.33;4.47;;;6.80;99.90;;;;;;4975603;28;20233;-69
2021/10/24 01:48:06;;;;;;;8.50;3.97;;;6.80;99.90;;;;;;4993385;28;20690;-69
2021/10/24 01:50:34;;;;;;;9.27;4.40;;;6.80;99.90;;;;;;4995715;28;20333;-69
2021/10/24 01:53:02;;;;;;;9.37;4.40;;;6.90;99.90;;;;;;4992933;28;20814;-69
2021/10/24 01:55:32;;;;;;;10.53;4.37;;;6.80;99.90;;;;;;4975268;28;20242;-69
2021/10/24 01:58:01;;;;;;;11.27;4.30;;;6.80;99.90;;;;;;4983636;28;20241;-69
2021/10/24 02:00:31;;;;;;;9.03;4.50;;;6.80;99.90;;;;;;4964421;28;20268;-69
2021/10/24 02:03:00;;;;;;;8.43;3.93;;;6.80;99.90;;;;;;4976159;28;20476;-69
2021/10/24 02:06:03;;;;;;;7.53;3.83;;;6.70;99.90;;;;;;4976829;28;20593;-69
2021/10/24 02:08:35;;;;;;;9.40;4.40;;;6.70;99.90;;;;;;4977706;28;20240;-69
2021/10/24 02:11:05;;;;;;;8.60;4.40;;;6.70;99.90;;;;;;4993026;28;20241;-69
2021/10/24 02:13:33;;;;;;;10.00;4.10;;;6.80;99.90;;;;;;4973371;28;20329;-69
2021/10/24 02:16:06;;;;;;;12.23;4.90;;;6.70;99.90;;;;;;4973983;28;20240;-69
2021/10/24 02:18:37;;;;;;;7.83;4.40;;;6.70;99.90;;;;;;4993486;28;20266;-69
2021/10/24 02:21:06;;;;;;;9.63;4.30;;;6.70;99.90;;;;;;4996662;28;20233;-69
2021/10/24 02:23:37;;;;;;;10.87;4.77;;;6.70;99.90;;;;;;4979219;28;20238;-70
2021/10/24 02:26:08;;;;;;;11.13;4.40;;;6.70;99.90;;;;;;4976436;28;20225;-69
2021/10/24 02:28:36;;;;;;;5.93;3.73;;;6.60;99.90;;;;;;4990335;28;20234;-69
2021/10/24 02:31:04;;;;;;;7.60;4.00;;;6.60;99.90;;;;;;4992979;28;20251;-69
2021/10/24 02:33:51;;;;;;;10.43;3.90;;;6.60;99.90;;;;;;4995335;28;20594;-69
2021/10/24 02:36:39;;;;;;;11.87;3.87;;;6.70;99.90;;;;;;4974547;28;20237;-69
2021/10/24 02:39:07;;;;;;;11.57;4.00;;;6.60;99.90;;;;;;4977170;28;20267;-69
2021/10/24 02:41:40;;;;;;;8.50;4.50;;;6.60;99.90;;;;;;4977176;28;20237;-69
2021/10/24 02:44:08;;;;;;;10.03;4.13;;;6.60;99.90;;;;;;4992618;28;20244;-69
2021/10/24 02:46:45;;;;;;;11.00;4.00;;;6.50;99.90;;;;;;4973821;28;20257;-69
2021/10/24 02:49:14;;;;;;;9.40;4.87;;;6.50;99.90;;;;;;4991688;28;20233;-69
2021/10/24 02:51:51;;;;;;;9.33;4.07;;;6.60;99.90;;;;;;4972364;28;20241;-69
2021/10/24 02:54:20;;;;;;;11.90;4.70;;;6.60;99.90;;;;;;4971305;28;20269;-69
2021/10/24 02:56:49;;;;;;;8.13;4.20;;;6.50;99.90;;;;;;4996798;28;20231;-69
2021/10/24 02:59:19;;;;;;;9.57;3.93;;;6.50;99.90;;;;;;4990954;28;20660;-69
2021/10/24 03:01:47;;;;;;;10.00;3.90;;;6.50;99.90;;;;;;4981064;28;20275;-70
2021/10/24 03:04:16;;;;;;;8.20;3.63;;;6.50;99.90;;;;;;4975372;28;20240;-69
2021/10/24 03:06:47;;;;;;;7.87;3.73;;;6.50;99.90;;;;;;4991355;28;20230;-69
2021/10/24 03:09:15;;;;;;;9.63;3.87;;;6.40;99.90;;;;;;4974344;28;20316;-69
2021/10/24 03:11:44;;;;;;;8.03;4.07;;;6.50;99.90;;;;;;4971886;28;20233;-69
2021/10/24 03:14:16;;;;;;;7.03;3.73;;;6.40;99.90;;;;;;4984876;28;20524;-70
2021/10/24 03:16:45;;;;;;;7.50;3.93;;;6.40;99.90;;;;;;4974554;28;20241;-69
2021/10/24 03:19:15;;;;;;;6.53;4.30;;;6.40;99.90;;;;;;4977995;28;20728;-69
2021/10/24 03:21:51;;;;;;;6.80;3.50;;;6.40;99.90;;;;;;4968516;28;20730;-69
2021/10/24 03:24:19;;;;;;;10.87;3.80;;;6.40;99.90;;;;;;4968070;28;20229;-70
2021/10/24 03:26:48;;;;;;;11.10;4.33;;;6.40;99.90;;;;;;4975545;28;20230;-69
2021/10/24 03:29:19;;;;;;;8.80;4.47;;;6.40;99.90;;;;;;4990767;28;20657;-70
2021/10/24 03:31:47;;;;;;;6.27;4.17;;;6.40;99.90;;;;;;4988252;28;20233;-69
2021/10/24 03:34:15;;;;;;;9.10;4.13;;;6.40;99.90;;;;;;4965383;28;20242;-70
2021/10/24 03:36:43;;;;;;;11.17;4.80;;;6.40;99.90;;;;;;4968573;28;20510;-69
2021/10/24 03:39:11;;;;;;;8.90;4.13;;;6.40;99.90;;;;;;4973505;28;20234;-69
2021/10/24 03:41:40;;;;;;;9.30;4.77;;;6.30;99.90;;;;;;4968282;28;20532;-69
2021/10/24 03:44:11;;;;;;;10.80;4.30;;;6.40;99.90;;;;;;4972962;28;20325;-69
2021/10/24 03:46:40;;;;;;;8.47;4.80;;;6.30;99.90;;;;;;4974090;28;20236;-69
2021/10/24 03:49:11;;;;;;;10.70;4.63;;;6.30;99.90;;;;;;4971097;28;20669;-69
2021/10/24 03:51:43;;;;;;;6.70;4.13;;;6.20;99.90;;;;;;4976602;28;20470;-69
2021/10/24 03:54:13;;;;;;;8.43;4.13;;;6.30;99.90;;;;;;4986030;28;20240;-69
2021/10/24 03:56:41;;;;;;;8.87;4.40;;;6.30;99.90;;;;;;4973999;28;20242;-69
2021/10/24 03:59:09;;;;;;;6.73;3.83;;;6.20;99.90;;;;;;4996001;28;20233;-69
2021/10/24 04:01:39;;;;;;;6.40;3.70;;;6.20;99.90;;;;;;4976674;28;20602;-69
2021/10/24 04:04:08;;;;;;;11.53;3.87;;;6.20;99.90;;;;;;4973521;28;20465;-69
2021/10/24 04:06:39;;;;;;;7.90;3.57;;;6.20;99.90;;;;;;4976845;28;20242;-69
2021/10/24 04:09:07;;;;;;;8.47;4.07;;;6.10;99.90;;;;;;4984798;28;20234;-69
2021/10/24 04:11:36;;;;;;;7.67;4.00;;;6.10;99.90;;;;;;4986017;28;20706;-69
2021/10/24 04:14:05;;;;;;;10.07;4.23;;;6.10;99.90;;;;;;4974481;28;20499;-69
2021/10/24 04:16:35;;;;;;;10.07;4.07;;;6.10;99.90;;;;;;4973512;28;20597;-69
2021/10/24 04:19:20;;;;;;;9.67;4.50;;;6.10;99.90;;;;;;4974308;28;21158;-69
2021/10/24 04:21:49;;;;;;;8.17;4.40;;;6.10;99.90;;;;;;4976277;28;20470;-70
2021/10/24 04:24:17;;;;;;;8.33;3.90;;;6.20;99.90;;;;;;4989299;28;20830;-70
2021/10/24 04:26:46;;;;;;;9.30;4.37;;;6.10;99.90;;;;;;4988957;28;20489;-69
2021/10/24 04:29:14;;;;;;;11.87;4.23;;;6.10;99.90;;;;;;4974769;28;20481;-69
2021/10/24 04:31:44;;;;;;;8.23;4.23;;;6.00;99.90;;;;;;4991859;28;20328;-69
2021/10/24 04:34:13;;;;;;;10.33;4.57;;;6.10;99.90;;;;;;4980843;28;20851;-69
2021/10/24 04:36:43;;;;;;;10.00;4.57;;;6.00;99.90;;;;;;4974184;28;20481;-69
2021/10/24 04:39:11;;;;;;;8.63;4.53;;;6.00;99.90;;;;;;4981917;28;20475;-69
2021/10/24 04:41:40;;;;;;;10.03;4.47;;;6.00;99.90;;;;;;4994110;28;20477;-69
2021/10/24 04:44:08;;;;;;;7.00;4.43;;;6.00;99.90;;;;;;4990971;28;20543;-69
2021/10/24 04:46:37;;;;;;;10.20;4.77;;;6.00;99.90;;;;;;4968786;28;20599;-69
2021/10/24 04:49:06;;;;;;;13.77;4.90;;;6.10;99.90;;;;;;4972100;28;21040;-69
2021/10/24 04:51:36;;;;;;;9.67;4.80;;;6.00;99.90;;;;;;4971831;28;20476;-69
2021/10/24 04:54:06;;;;;;;8.53;4.50;;;6.00;99.90;;;;;;4975927;28;21015;-70
2021/10/24 04:56:35;;;;;;;9.77;4.30;;;6.00;99.90;;;;;;4972945;28;20470;-69
2021/10/24 04:59:03;;;;;;;11.27;4.67;;;6.10;99.90;;;;;;4962578;28;20274;-70
2021/10/24 05:01:34;;;;;;;11.17;4.40;;;6.00;99.90;;;;;;4972966;28;20886;-69
2021/10/24 05:04:03;;;;;;;10.43;4.77;;;6.00;99.90;;;;;;4970285;28;20317;-69
2021/10/24 05:06:31;;;;;;;8.50;4.60;;;5.90;99.90;;;;;;4972937;28;20491;-69
2021/10/24 05:08:59;;;;;;;8.60;4.77;;;6.00;99.90;;;;;;4973650;28;20762;-69
2021/10/24 05:11:29;;;;;;;8.60;4.70;;;5.90;99.90;;;;;;4970439;28;20473;-69
2021/10/24 05:13:58;;;;;;;7.47;4.20;;;5.90;99.90;;;;;;4989684;28;20474;-69
2021/10/24 05:16:28;;;;;;;7.53;4.00;;;6.00;99.90;;;;;;4976094;28;20968;-69
2021/10/24 05:18:56;;;;;;;10.50;4.30;;;5.90;99.90;;;;;;4974688;28;20241;-69
2021/10/24 05:21:24;;;;;;;9.93;4.30;;;5.90;99.90;;;;;;4978627;28;20265;-69
2021/10/24 05:23:53;;;;;;;10.83;4.47;;;5.90;99.90;;;;;;4973620;28;20479;-70
2021/10/24 05:26:22;;;;;;;10.93;4.73;;;5.80;99.90;;;;;;4992291;28;20255;-69
2021/10/24 05:28:52;;;;;;;8.17;4.20;;;5.80;99.90;;;;;;4976375;28;20506;-69
2021/10/24 05:31:20;;;;;;;8.40;4.33;;;5.80;99.90;;;;;;4979675;28;20233;-69
2021/10/24 05:34:05;;;;;;;9.93;4.73;;;5.80;99.90;;;;;;4970505;28;20492;-69
2021/10/24 05:36:47;;;;;;;8.47;4.70;;;5.80;99.90;;;;;;4987041;28;20239;-69
2021/10/24 05:39:16;;;;;;;9.37;4.70;;;5.80;99.90;;;;;;4973074;28;20312;-69
2021/10/24 05:41:45;;;;;;;7.63;4.30;;;5.80;99.90;;;;;;4973393;28;21061;-69
2021/10/24 05:44:19;;;;;;;8.50;4.70;;;5.90;99.90;;;;;;4969469;28;21070;-69
2021/10/24 05:46:53;;;;;;;11.13;4.90;;;5.90;99.90;;;;;;4974348;28;20527;-70
2021/10/24 05:49:21;;;;;;;11.67;4.40;;;5.80;99.90;;;;;;4990212;28;20237;-70
2021/10/24 05:51:53;;;;;;;10.67;4.50;;;5.80;99.90;;;;;;4993381;28;20524;-69
2021/10/24 05:54:24;;;;;;;11.47;4.50;;;5.80;99.90;;;;;;4974566;28;20233;-70
2021/10/24 05:56:52;;;;;;;9.53;4.80;;;5.70;99.90;;;;;;4964099;28;20242;-69
2021/10/24 05:59:36;;;;;;;9.70;4.50;;;5.80;99.90;;;;;;4981836;28;20238;-69
2021/10/24 06:02:14;;;;;;;10.27;4.70;;;5.70;99.90;;;;;;4971672;28;20491;-70
2021/10/24 06:04:43;;;;;;;8.93;4.70;;;5.80;99.90;;;;;;4966532;28;20272;-69
2021/10/24 06:07:35;;;;;;;9.20;4.50;;;5.70;99.90;;;;;;4973746;28;20482;-69
2021/10/24 06:10:12;;;;;;;8.50;4.50;;;5.70;99.90;;;;;;4995686;28;20496;-69
2021/10/24 06:12:43;;;;;;;10.67;5.00;;;5.70;99.90;;;;;;4974916;28;20241;-69
2021/10/24 06:15:16;;;;;;;8.67;4.70;;;5.60;99.90;;;;;;4973772;28;20249;-69
2021/10/24 06:17:45;;;;;;;12.77;4.70;;;5.70;99.90;;;;;;4970318;28;20560;-69
2021/10/24 06:20:15;;;;;;;11.50;5.13;;;5.70;99.90;;;;;;4988470;28;20241;-69
2021/10/24 06:22:45;;;;;;;9.83;4.60;;;5.80;99.90;;;;;;4986567;28;20248;-69
2021/10/24 06:25:15;;;;;;;10.20;5.03;;;5.70;99.90;;;;;;4986914;28;20629;-69
2021/10/24 06:27:47;;;;;;;10.20;5.13;;;5.70;99.90;;;;;;4984437;28;20245;-69
2021/10/24 06:30:21;;;;;;;9.27;4.70;;;5.70;99.90;;;;;;4983600;28;20474;-69
2021/10/24 06:33:08;;;;;;;8.03;4.67;;;5.70;99.90;;;;;;4967648;28;20496;-69
2021/10/24 06:35:42;;;;;;;8.93;5.00;;;5.60;99.90;;;;;;4972352;28;20477;-69
2021/10/24 06:38:33;;;;;;;9.43;4.97;;;5.70;99.90;;;;;;4948934;28;20912;-69
2021/10/24 06:41:15;;;;;;;11.43;5.57;;;5.80;99.90;;;;;;4973525;28;20324;-69
2021/10/24 06:44:10;;;;;;;12.10;4.67;;;5.80;99.90;;;;;;4965293;28;20237;-69
2021/10/24 06:46:58;;;;;;;10.47;4.93;;;5.80;99.90;;;;;;4975609;28;20476;-69
2021/10/24 06:50:02;;;;;;;8.33;5.17;;;5.80;99.90;;;;;;4965931;28;20230;-69
2021/10/24 06:52:48;;;;;;;9.17;4.90;;;5.80;99.90;;;;;;4965948;28;20316;-69
2021/10/24 06:55:35;;;;;;;12.67;4.80;;;5.80;99.90;;;;;;4966255;28;20490;-69
2021/10/24 06:58:41;;;;;;;8.90;4.60;;;5.90;99.90;;;;;;4963541;28;20494;-69
2021/10/24 07:01:30;;;;;;;10.50;5.70;;;5.90;99.90;;;;;;4967427;28;20488;-69
2021/10/24 07:04:18;;;;;;;9.27;4.83;;;6.00;99.90;;;;;;4967091;28;20484;-69
2021/10/24 07:06:54;;;;;;;9.83;5.10;;;6.00;99.90;;;;;;4965743;28;20693;-69
2021/10/24 07:09:26;;;;;;;10.93;4.97;;;5.90;99.90;;;;;;4988686;28;20486;-69
2021/10/24 07:12:10;;;;;;;8.43;4.33;;;5.90;99.90;;;;;;4974693;28;20255;-69
2021/10/24 07:14:39;;;;;;;8.73;4.80;;;6.00;99.90;;;;;;4982976;28;20254;-69
2021/10/24 07:17:07;;;;;;;10.00;4.13;;;6.10;99.90;;;;;;4976874;28;20885;-69
2021/10/24 07:19:37;;;;;;;11.10;4.73;;;6.10;99.90;;;;;;4991631;28;20245;-69
2021/10/24 07:22:12;;;;;;;12.90;4.67;;;6.10;99.90;;;;;;4972657;28;20646;-69
2021/10/24 07:24:58;;;;;;;8.63;4.40;;;6.20;99.90;;;;;;4987128;28;20357;-69
2021/10/24 07:27:31;;;;;;;8.60;4.73;;;6.20;99.90;;;;;;4966913;28;20484;-69
2021/10/24 07:30:00;;;;;;;7.27;4.67;;;6.20;99.90;;;;;;4989030;28;20469;-69
2021/10/24 07:32:33;;;;;;;6.77;4.47;;;6.30;99.90;;;;;;4974661;28;21023;-69
2021/10/24 07:35:21;;;;;;;10.03;5.23;;;6.40;99.90;;;;;;4995097;28;20247;-69
2021/10/24 07:37:50;;;;;;;11.90;4.80;;;6.50;99.90;;;;;;4994245;28;20535;-69
2021/10/24 07:40:29;;;;;;;7.80;4.77;;;6.60;99.90;;;;;;4972796;28;20230;-69
2021/10/24 07:42:58;;;;;;;11.47;4.83;;;6.80;99.90;;;;;;4980206;28;20245;-69
2021/10/24 07:45:26;;;;;;;7.43;4.80;;;6.80;99.90;;;;;;4974645;28;20605;-69
2021/10/24 07:47:56;;;;;;;7.00;4.90;;;7.00;99.90;;;;;;4975141;28;20245;-69
2021/10/24 07:50:28;;;;;;;10.70;5.87;;;7.00;99.90;;;;;;4991785;28;20230;-68
2021/10/24 07:52:58;;;;;;;10.60;5.23;;;7.10;99.90;;;;;;4975558;28;20638;-69
2021/10/24 07:55:42;;;;;;;12.67;5.47;;;7.30;99.90;;;;;;4981420;28;20321;-69
2021/10/24 07:58:23;;;;;;;10.77;5.50;;;7.50;99.90;;;;;;4985885;28;20236;-68
2021/10/24 08:00:53;;;;;;;9.83;5.37;;;7.60;99.90;;;;;;4985280;28;20613;-68
2021/10/24 08:03:22;;;;;;;10.10;4.97;;;7.70;99.90;;;;;;4985957;28;20656;-68
2021/10/24 08:05:52;;;;;;;9.57;4.80;;;7.80;99.90;;;;;;4969619;28;20224;-68
2021/10/24 08:08:21;;;;;;;9.00;4.87;;;8.00;99.90;;;;;;4980611;28;20761;-68
2021/10/24 08:10:49;;;;;;;9.97;5.33;;;8.10;99.90;;;;;;4967943;28;20235;-68
2021/10/24 08:13:18;;;;;;;10.00;4.93;;;8.30;99.90;;;;;;4968463;28;20730;-68
2021/10/24 08:15:48;;;;;;;10.87;5.20;;;8.50;99.90;;;;;;4984443;28;20313;-68
2021/10/24 08:18:16;;;;;;;10.13;5.37;;;8.70;99.90;;;;;;4983489;28;20230;-68
2021/10/24 08:21:05;;;;;;;6.67;4.63;;;8.80;99.90;;;;;;4963631;28;20331;-68
2021/10/24 08:23:36;;;;;;;9.20;5.43;;;9.10;99.90;;;;;;4981038;28;20799;-68
2021/10/24 08:26:05;;;;;;;6.30;4.73;;;9.10;99.90;;;;;;4967915;28;20630;-68
2021/10/24 08:28:34;;;;;;;10.57;4.80;;;9.20;99.90;;;;;;4970429;28;20650;-68
2021/10/24 08:31:02;;;;;;;9.83;4.80;;;9.40;99.90;;;;;;4967830;28;20246;-68
2021/10/24 08:33:40;;;;;;;10.90;5.40;;;9.50;99.90;;;;;;4983694;28;20258;-68
2021/10/24 08:36:09;;;;;;;8.33;5.23;;;9.50;99.90;;;;;;4964587;28;20610;-68
2021/10/24 08:38:37;;;;;;;9.67;5.13;;;9.60;99.90;;;;;;4972781;28;20714;-68
2021/10/24 08:41:07;;;;;;;7.67;5.13;;;9.70;99.90;;;;;;4967341;28;20265;-68
2021/10/24 08:43:37;;;;;;;11.93;5.33;;;9.80;99.90;;;;;;4961223;28;20243;-68
2021/10/24 08:46:06;;;;;;;7.60;4.87;;;9.90;99.90;;;;;;4964649;28;20238;-68
2021/10/24 08:48:34;;;;;;;10.40;4.80;;;9.80;99.90;;;;;;4964062;28;20261;-68
2021/10/24 08:51:03;;;;;;;7.73;4.63;;;9.90;99.90;;;;;;4965940;28;20239;-68
2021/10/24 08:53:33;;;;;;;10.87;4.90;;;10.10;99.90;;;;;;4963726;28;20232;-68
2021/10/24 08:56:01;;;;;;;9.17;4.83;;;10.20;99.90;;;;;;4963545;28;20235;-68
2021/10/24 08:58:29;;;;;;;8.67;4.77;;;10.20;99.90;;;;;;4965730;28;20239;-68
2021/10/24 09:00:58;;;;;;;9.00;5.10;;;10.40;99.90;;;;;;4964414;28;20683;-68
2021/10/24 09:03:26;;;;;;;10.20;5.03;;;10.50;99.90;;;;;;4966184;28;20313;-68
2021/10/24 09:05:54;;;;;;;8.23;5.17;;;10.50;99.90;;;;;;4964631;28;20340;-68
2021/10/24 09:08:24;;;;;;;9.43;5.23;;;10.70;99.90;;;;;;4973312;28;20233;-68
2021/10/24 09:10:56;;;;;;;11.27;5.10;;;10.80;99.90;;;;;;4990713;28;22929;-68
2021/10/24 09:13:27;;;;;;;9.77;5.03;;;10.90;99.90;;;;;;4985660;28;20762;-68
2021/10/24 09:15:57;;;;;;;9.95;5.07;;;10.80;99.90;;;;;;4980121;28;20442;-70
2021/10/24 09:18:31;;;;;;;8.77;4.67;;;11.00;99.90;;;;;;4982684;28;20667;-71
2021/10/24 09:21:19;;;;;;;12.00;5.03;;;11.00;99.90;;;;;;4986029;28;20233;-71
2021/10/24 09:23:50;;;;;;;11.10;6.00;;;11.00;99.90;;;;;;4995098;28;20300;-71
2021/10/24 09:26:24;;;;;;;9.13;4.67;;;11.10;99.90;;;;;;4981579;28;20744;-70
2021/10/24 09:29:04;;;;;;;7.40;4.60;;;10.90;99.90;;;;;;4993093;28;20237;-70
2021/10/24 09:31:33;;;;;;;7.10;4.57;;;10.80;99.90;;;;;;4988492;28;20324;-71
2021/10/24 09:34:17;;;;;;;11.77;4.90;;;10.80;99.90;;;;;;4986147;28;20304;-70
2021/10/24 09:36:52;;;;;;;8.87;4.60;;;10.80;99.90;;;;;;4985652;28;20238;-70
2021/10/24 09:39:44;;;;;;;7.83;5.10;;;10.80;99.90;;;;;;4978910;28;20235;-67
2021/10/24 09:42:16;;;;;;;9.10;5.10;;;10.70;99.90;;;;;;4985111;28;20293;-68
2021/10/24 09:45:04;;;;;;;9.43;4.50;;;10.70;99.90;;;;;;4982858;28;20242;-68
2021/10/24 09:47:34;;;;;;;8.50;4.97;;;10.60;99.90;;;;;;4986766;28;20239;-67
2021/10/24 09:50:02;;;;;;;10.03;5.20;;;10.50;99.90;;;;;;4984188;28;20700;-68
2021/10/24 09:52:32;;;;;;;9.40;5.13;;;10.60;99.90;;;;;;4986823;28;20705;-67
2021/10/24 09:55:15;;;;;;;7.80;5.10;;;10.50;99.90;;;;;;4969857;28;20282;-67
2021/10/24 09:57:45;;;;;;;11.07;5.00;;;10.50;99.90;;;;;;4984079;28;20571;-68
2021/10/24 10:00:14;;;;;;;8.97;5.30;;;10.40;99.90;;;;;;4986434;28;20248;-68
2021/10/24 10:02:43;;;;;;;7.50;5.10;;;10.50;99.90;;;;;;4992289;28;20266;-68
2021/10/24 10:05:12;;;;;;;7.90;4.63;;;10.50;99.90;;;;;;4990493;28;20293;-67
2021/10/24 10:07:40;;;;;;;10.60;5.27;;;10.60;99.90;;;;;;4994087;28;20273;-69
2021/10/24 10:10:09;;;;;;;9.60;5.13;;;10.80;99.90;;;;;;4992131;28;20315;-69
2021/10/24 10:12:45;;;;;;;10.10;4.77;;;11.00;99.90;;;;;;4962954;28;20262;-70
2021/10/24 10:15:16;;;;;;;9.10;5.50;;;11.40;99.90;;;;;;4988435;28;20270;-71
2021/10/24 10:17:46;;;;;;;7.33;4.30;;;11.50;99.90;;;;;;4981004;28;20238;-70
2021/10/24 10:20:24;;;;;;;7.17;4.87;;;11.70;99.90;;;;;;4995564;28;20243;-71
2021/10/24 10:23:07;;;;;;;11.07;5.87;;;11.90;99.90;;;;;;4997301;28;20820;-70
2021/10/24 10:25:37;;;;;;;11.33;5.13;;;11.90;99.90;;;;;;4983283;28;20279;-70
2021/10/24 10:28:06;;;;;;;9.60;5.43;;;12.00;99.90;;;;;;4993266;28;20231;-71
2021/10/24 10:30:38;;;;;;;6.93;4.77;;;12.00;99.90;;;;;;4995748;28;20239;-71
2021/10/24 10:33:32;;;;;;;8.73;5.27;;;12.10;99.90;;;;;;4996089;28;20241;-70
2021/10/24 10:36:03;;;;;;;7.60;4.80;;;12.10;99.90;;;;;;4996747;28;20238;-71
2021/10/24 10:38:34;;;;;;;9.10;5.27;;;12.20;99.90;;;;;;4982967;28;20708;-71
2021/10/24 10:41:03;;;;;;;6.70;4.80;;;12.20;99.90;;;;;;4990817;28;20250;-71
2021/10/24 10:43:32;;;;;;;10.40;5.70;;;12.30;99.90;;;;;;4971060;28;20721;-71
2021/10/24 10:46:03;;;;;;;10.17;5.13;;;12.40;99.90;;;;;;4975432;28;21087;-70
2021/10/24 10:48:39;;;;;;;8.30;5.40;;;12.60;99.90;;;;;;4975129;28;20252;-70
2021/10/24 10:51:18;;;;;;;10.97;5.47;;;12.70;99.90;;;;;;4976094;28;20330;-70
2021/10/24 10:54:05;;;;;;;7.20;5.40;;;12.80;99.90;;;;;;4972369;28;20243;-70
2021/10/24 10:56:52;;;;;;;8.83;5.27;;;12.90;99.90;;;;;;4958138;28;20758;-71
2021/10/24 10:59:40;;;;;;;6.40;5.30;;;13.00;99.90;;;;;;4975376;28;20592;-70
2021/10/24 11:02:29;;;;;;;6.93;5.00;;;12.90;99.90;;;;;;4972155;28;20265;-70
2021/10/24 11:05:00;;;;;;;8.47;5.50;;;13.00;99.90;;;;;;4976492;28;20685;-70
2021/10/24 11:07:39;;;;;;;8.90;5.60;;;13.10;99.90;;;;;;4978455;28;21439;-70
2021/10/24 11:10:09;;;;;;;6.63;5.07;;;13.30;99.90;;;;;;4976195;28;20726;-70
2021/10/24 11:12:43;;;;;;;14.90;5.40;;;13.50;99.90;;;;;;4973999;28;20683;-70
2021/10/24 11:15:31;;;;;;;8.53;5.30;;;13.70;99.90;;;;;;4976716;28;20241;-70
2021/10/24 11:18:05;;;;;;;8.67;5.43;;;13.60;99.90;;;;;;4976623;28;20260;-71
2021/10/24 11:20:42;;;;;;;8.17;5.10;;;13.60;99.90;;;;;;4975978;28;20658;-70
2021/10/24 11:23:15;;;;;;;9.63;5.00;;;13.50;99.90;;;;;;4972963;28;20263;-70
2021/10/24 11:25:51;;;;;;;9.73;5.73;;;13.50;99.90;;;;;;4977029;28;20338;-65
2021/10/24 11:28:23;;;;;;;17.60;5.63;;;13.50;99.90;;;;;;4976760;28;20245;-64
2021/10/24 11:31:02;;;;;;;13.30;5.40;;;13.50;99.90;;;;;;4976398;28;20247;-65
2021/10/24 11:33:47;;;;;;;8.73;4.97;;;13.60;99.90;;;;;;4973122;28;20244;-65
2021/10/24 11:36:24;;;;;;;8.20;5.03;;;13.60;99.90;;;;;;4975236;28;21130;-66
2021/10/24 11:38:56;;;;;;;20.90;5.60;;;13.40;99.90;;;;;;4977056;28;20327;-65
2021/10/24 11:41:26;;;;;;;15.77;5.77;;;13.20;99.90;;;;;;4975620;28;20441;-66
2021/10/24 11:44:05;;;;;;;8.67;5.40;;;13.20;99.90;;;;;;4971941;28;20601;-67
2021/10/24 11:46:34;;;;;;;8.27;5.10;;;13.20;99.90;;;;;;4976561;28;20369;-66
2021/10/24 11:49:04;;;;;;;7.80;5.03;;;13.20;99.90;;;;;;4976606;28;20247;-66
2021/10/24 11:51:34;;;;;;;8.57;4.73;;;13.20;99.90;;;;;;4977396;28;20461;-67
2021/10/24 11:54:07;;;;;;;7.73;4.70;;;13.20;99.90;;;;;;4973879;28;20754;-64
2021/10/24 11:57:01;;;;;;;9.30;4.73;;;13.10;99.90;;;;;;4975663;28;20241;-64
2021/10/24 11:59:37;;;;;;;4.93;4.37;;;13.20;99.90;;;;;;4976656;28;20705;-64
2021/10/24 12:02:08;;;;;;;7.57;4.60;;;13.30;99.90;;;;;;4975172;28;20313;-65
2021/10/24 12:04:38;;;;;;;8.57;4.73;;;13.20;99.90;;;;;;4974122;28;20712;-64
2021/10/24 12:07:06;;;;;;;6.70;4.30;;;13.20;99.90;;;;;;4976694;28;20635;-64
2021/10/24 12:09:39;;;;;;;7.03;4.30;;;13.10;99.90;;;;;;4976793;28;20343;-64
2021/10/24 12:12:12;;;;;;;6.23;4.27;;;13.10;99.90;;;;;;4980087;28;20248;-64
2021/10/24 12:14:54;;;;;;;8.37;4.30;;;13.30;99.90;;;;;;4980394;28;20245;-64
2021/10/24 12:17:25;;;;;;;5.57;4.20;;;13.40;99.90;;;;;;4978609;28;20780;-64
2021/10/24 12:20:19;;;;;;;7.27;4.47;;;13.30;99.90;;;;;;4972532;28;20289;-64
2021/10/24 12:22:50;;;;;;;5.10;3.80;;;13.30;99.90;;;;;;4977061;28;20567;-64
2021/10/24 12:25:22;;;;;;;6.27;3.90;;;13.30;99.90;;;;;;4983114;28;20323;-64
2021/10/24 12:28:05;;;;;;;6.57;3.60;;;13.20;99.90;;;;;;4982467;28;20350;-64
2021/10/24 12:30:34;;;;;;;7.97;3.47;;;13.20;99.90;;;;;;4985188;28;20248;-64
2021/10/24 12:33:06;;;;;;;6.47;3.70;;;13.20;99.90;;;;;;4986662;28;20254;-65
2021/10/24 12:35:44;;;;;;;5.57;3.77;;;13.30;99.90;;;;;;4991995;28;20287;-64
2021/10/24 12:38:12;;;;;;;7.97;3.70;;;13.30;99.90;;;;;;4987981;28;20327;-64
2021/10/24 12:40:49;;;;;;;5.93;3.40;;;13.40;99.90;;;;;;4985297;28;20748;-64
2021/10/24 12:43:18;;;;;;;8.63;3.60;;;13.40;99.90;;;;;;4984257;28;20768;-64
2021/10/24 12:45:51;;;;;;;5.77;3.10;;;13.30;99.90;;;;;;4971339;28;20247;-65
2021/10/24 12:48:22;;;;;;;4.63;3.13;;;13.30;99.90;;;;;;4974532;28;20854;-64
2021/10/24 12:50:53;;;;;;;5.17;3.13;;;13.10;99.90;;;;;;4977179;28;20243;-65
2021/10/24 12:53:23;;;;;;;4.53;2.77;;;13.10;99.90;;;;;;4976317;28;20681;-65
2021/10/24 12:56:03;;;;;;;6.27;2.70;;;13.00;99.90;;;;;;4976943;28;20245;-65
2021/10/24 12:58:31;;;;;;;4.93;2.90;;;13.10;99.90;;;;;;4976260;28;20236;-65
2021/10/24 13:00:59;;;;;;;4.30;2.73;;;13.10;99.90;;;;;;4977404;28;20244;-65
2021/10/24 13:03:28;;;;;;;5.43;2.97;;;13.20;99.90;;;;;;4976314;28;20244;-65
2021/10/24 13:05:57;;;;;;;8.83;3.00;;;13.10;99.90;;;;;;4975014;28;20248;-65
2021/10/24 13:08:25;;;;;;;7.17;3.30;;;13.10;99.90;;;;;;4973026;28;20245;-64
2021/10/24 13:10:53;;;;;;;7.63;3.10;;;13.10;99.90;;;;;;4975726;28;20617;-65
2021/10/24 13:13:22;;;;;;;4.80;2.60;;;13.00;99.90;;;;;;4975966;28;20260;-65
2021/10/24 13:15:50;;;;;;;5.07;2.93;;;12.80;99.90;;;;;;4975455;28;20339;-65
2021/10/24 13:18:18;;;;;;;8.97;3.17;;;12.70;99.90;;;;;;4973448;28;20240;-65